Stations météo

réclame
Mon MeteoGroup
Idre, Suède (2307): Température de l'air & dewpoint: 12.06.2018 12:00:00 - 18.06.2018 12:00:00 (CEST)Idre, Suède (2307): Vitesse du vent & gusts: 12.06.2018 12:00:00 - 18.06.2018 12:00:00 (CEST)Idre, Suède (2307): Direction du vent: 12.06.2018 12:00:00 - 18.06.2018 12:00:00 (CEST)
Date & Time tt [°C] td [°C] ff [km/h] ff [knt] fx [km/h] fx [knt] dd
18.06.2018 12:00:00 11,4 7,1 17 9 28 15 SW
18.06.2018 11:00:00 9,5 6,8 13 7 23 12 SW
18.06.2018 10:00:00 8,1 6,7 13 7 22 12 WSW
18.06.2018 09:00:00 7,8 6,6 14 7 23 12 WSW
18.06.2018 08:00:00 7,4 6,0 12 7 23 12 W
18.06.2018 07:00:00 7,1 5,9 16 9 23 12 W
18.06.2018 06:00:00 7,4 6,5 14 8 19 10 W
18.06.2018 05:00:00 7,2 6,0 13 7 18 10 WNW
18.06.2018 04:00:00 7,0 5,8 11 6 16 9 WNW
18.06.2018 03:00:00 7,1 5,9 8 5 11 6 WNW
18.06.2018 02:00:00 7,2 5,7 5 3 11 6 NW
18.06.2018 01:00:00 7,1 5,4 2 1 18 10 E
18.06.2018 00:00:00 7,1 5,9 8 5 26 14 ESE
17.06.2018 23:00:00 7,1 6,2 12 6 29 16 E
17.06.2018 22:00:00 7,4 6,5 16 9 29 16 E
17.06.2018 21:00:00 7,8 6,9 18 10 29 16 ESE
17.06.2018 20:00:00 7,8 6,9 18 10 37 20 ESE
17.06.2018 19:00:00 7,7 6,8 21 12 45 24 SE
17.06.2018 18:00:00 7,7 6,9 27 15 45 24 SSE
17.06.2018 17:00:00 8,3 7,4 26 14 36 19 SE
17.06.2018 16:00:00 8,5 7,6 22 12 - - SSE
17.06.2018 15:00:00 8,8 8,0 18 10 36 20 SSE
17.06.2018 14:00:00 8,2 7,1 21 11 36 20 SSE
17.06.2018 13:00:00 8,1 7,2 24 13 34 18 SSE
17.06.2018 12:00:00 7,6 6,7 21 11 33 18 SSE
17.06.2018 11:00:00 6,8 5,7 21 11 36 20 SE
17.06.2018 10:00:00 6,4 5,5 24 13 36 20 ESE
17.06.2018 09:00:00 6,2 5,2 20 11 28 15 ESE
17.06.2018 08:00:00 6,4 5,2 16 9 23 12 SE
17.06.2018 07:00:00 6,4 4,6 16 8 23 12 ESE
17.06.2018 06:00:00 6,7 4,0 16 8 21 12 ESE
17.06.2018 05:00:00 6,8 3,4 16 9 19 11 ESE
17.06.2018 04:00:00 7,0 2,9 13 7 18 10 ESE
17.06.2018 03:00:00 7,3 2,6 14 7 17 9 ESE
17.06.2018 02:00:00 8,0 2,7 13 7 17 9 ESE
17.06.2018 01:00:00 9,4 2,3 13 7 23 13 S
17.06.2018 00:00:00 9,4 2,7 12 6 25 14 S
16.06.2018 23:00:00 10,1 2,9 16 9 25 14 S
16.06.2018 22:00:00 10,9 2,7 19 11 28 15 SSE
16.06.2018 21:00:00 12,3 2,7 19 10 29 16 S
16.06.2018 20:00:00 13,0 1,3 16 9 29 16 S
16.06.2018 19:00:00 14,6 0,1 21 12 28 15 S
16.06.2018 18:00:00 14,1 -1,9 10 5 21 12 S
16.06.2018 17:00:00 15,1 -2,4 8 4 20 11 SSE
16.06.2018 16:00:00 14,3 -2,2 11 6 23 12 SSW
16.06.2018 15:00:00 14,2 -1,9 16 9 23 12 SSW
16.06.2018 14:00:00 12,8 -2,3 8 4 30 16 WSW
16.06.2018 13:00:00 11,9 -1,6 11 6 30 16 WSW
16.06.2018 12:00:00 12,7 -0,6 14 8 26 14 SW
16.06.2018 11:00:00 10,9 0,3 10 5 26 14 SSW
16.06.2018 10:00:00 10,7 1,5 13 7 26 14 SW
16.06.2018 09:00:00 9,0 3,0 8 4 22 12 SSW
16.06.2018 08:00:00 7,7 3,4 8 4 22 12 SW
16.06.2018 07:00:00 6,0 3,8 16 9 23 13 SSW
16.06.2018 06:00:00 6,2 3,0 13 7 24 13 SW
16.06.2018 05:00:00 6,2 2,8 16 9 28 15 SSW
16.06.2018 04:00:00 6,4 2,3 12 7 35 19 SSW
16.06.2018 03:00:00 6,8 2,3 21 11 35 19 SSW
16.06.2018 02:00:00 6,3 2,6 18 10 35 19 S
16.06.2018 01:00:00 6,9 3,5 21 12 64 34 SW
16.06.2018 00:00:00 7,3 2,6 21 11 64 34 SW
15.06.2018 23:00:00 9,8 -0,7 20 11 48 26 SW
15.06.2018 22:00:00 10,6 -1,2 33 18 58 31 SW
15.06.2018 21:00:00 11,5 -1,0 34 18 58 31 SW
15.06.2018 20:00:00 12,5 -1,4 31 17 58 31 SW
15.06.2018 19:00:00 13,0 -1,4 35 19 62 33 SW
15.06.2018 18:00:00 12,3 -2,4 35 19 70 38 WSW
15.06.2018 17:00:00 12,8 -2,7 44 24 70 38 SW
15.06.2018 16:00:00 12,3 -2,0 39 21 66 36 SW
15.06.2018 15:00:00 12,7 -0,6 37 20 63 34 SW
15.06.2018 14:00:00 - - - - 62 33 -
15.06.2018 13:00:00 11,1 -0,1 35 19 61 33 SW
15.06.2018 12:00:00 9,9 0,0 37 20 60 33 SW
15.06.2018 11:00:00 10,5 0,2 36 20 60 33 WSW
15.06.2018 10:00:00 9,2 0,1 40 21 59 32 WSW
15.06.2018 09:00:00 8,6 0,6 36 19 57 31 SW
15.06.2018 08:00:00 7,8 1,4 37 20 54 29 SW
15.06.2018 07:00:00 7,0 2,7 31 17 49 27 SW
15.06.2018 06:00:00 6,7 3,3 31 17 54 29 WSW
15.06.2018 05:00:00 7,2 4,2 30 16 54 29 SW
15.06.2018 04:00:00 7,7 5,2 24 13 52 28 SW
15.06.2018 03:00:00 8,0 6,0 34 18 56 30 SSW
15.06.2018 02:00:00 8,1 6,2 32 17 68 37 SSW
15.06.2018 01:00:00 8,1 6,7 40 22 69 37 SSW
15.06.2018 00:00:00 8,4 7,5 42 23 69 37 SSW
14.06.2018 23:00:00 8,5 7,7 43 23 61 33 S
14.06.2018 22:00:00 8,7 7,8 41 22 66 36 S
14.06.2018 21:00:00 8,6 7,8 42 23 66 36 S
14.06.2018 20:00:00 8,5 7,7 41 22 59 32 S
14.06.2018 19:00:00 8,4 7,3 43 23 59 32 S
14.06.2018 18:00:00 8,3 6,9 36 19 55 30 S
14.06.2018 17:00:00 8,2 6,7 37 20 55 30 S
14.06.2018 16:00:00 8,5 6,5 32 18 58 32 S
14.06.2018 15:00:00 9,3 5,8 39 21 58 32 S
14.06.2018 14:00:00 8,6 6,4 31 17 57 31 S
14.06.2018 13:00:00 8,4 6,7 42 23 57 31 S
14.06.2018 12:00:00 9,0 7,4 31 17 54 29 S
14.06.2018 11:00:00 9,2 8,3 32 18 46 25 S
14.06.2018 10:00:00 8,4 7,8 32 17 45 24 S
14.06.2018 09:00:00 8,2 7,4 24 13 45 24 SSE
14.06.2018 08:00:00 7,6 7,0 25 14 35 19 SSE
14.06.2018 07:00:00 7,1 6,4 22 12 35 19 SE
14.06.2018 06:00:00 6,7 6,0 23 12 32 18 SE
14.06.2018 05:00:00 6,5 5,6 21 11 27 15 SE
14.06.2018 04:00:00 6,3 5,4 19 10 27 15 SSE
14.06.2018 03:00:00 6,2 5,2 21 11 26 14 SSE
14.06.2018 02:00:00 6,0 5,0 19 10 25 13 SE
14.06.2018 01:00:00 6,0 4,8 15 8 25 13 SE
14.06.2018 00:00:00 6,0 4,5 17 9 28 15 SE
13.06.2018 23:00:00 6,6 4,6 19 10 29 15 SSE
13.06.2018 22:00:00 7,8 4,6 20 11 29 16 SSE
13.06.2018 21:00:00 10,2 4,3 21 11 29 16 SSE
13.06.2018 20:00:00 10,8 3,6 18 10 27 15 S
13.06.2018 19:00:00 11,4 3,4 18 10 27 15 S
13.06.2018 18:00:00 11,2 3,0 15 8 24 13 S
13.06.2018 17:00:00 11,1 2,1 12 7 23 13 SSW
13.06.2018 16:00:00 12,0 1,3 10 6 25 14 S
13.06.2018 15:00:00 10,9 1,4 14 7 25 14 S
13.06.2018 14:00:00 10,2 0,8 11 6 24 13 SW
13.06.2018 13:00:00 8,7 1,1 14 7 22 12 SW
13.06.2018 12:00:00 7,6 0,8 6 3 17 9 SSW
13.06.2018 11:00:00 5,5 -0,1 5 3 16 8 SSW
13.06.2018 10:00:00 5,1 0,8 9 5 15 8 WSW
13.06.2018 09:00:00 4,5 -0,1 6 3 11 6 WSW
13.06.2018 08:00:00 3,6 -1,4 3 2 11 6 S
13.06.2018 07:00:00 3,8 -1,8 3 2 8 4 W
13.06.2018 06:00:00 3,7 -2,3 3 2 7 4 N
13.06.2018 05:00:00 3,7 -2,1 5 3 13 7 NE
13.06.2018 04:00:00 3,3 -3,1 3 1 23 13 SW
13.06.2018 03:00:00 3,5 -1,7 11 6 23 13 N
13.06.2018 02:00:00 3,6 -1,6 18 10 28 15 N
13.06.2018 01:00:00 3,8 -1,2 18 10 28 15 N
13.06.2018 00:00:00 4,1 -0,7 19 10 28 15 NNW
12.06.2018 23:00:00 5,1 -0,7 21 11 32 17 N
12.06.2018 22:00:00 6,3 -0,2 22 12 32 17 NNW
12.06.2018 21:00:00 7,3 -0,4 21 11 30 16 NNW
12.06.2018 20:00:00 8,9 -0,4 20 11 32 17 NNW
12.06.2018 19:00:00 10,2 -1,2 20 11 32 17 N
12.06.2018 18:00:00 11,3 -1,2 18 10 40 22 NNW
12.06.2018 17:00:00 11,1 -1,0 18 10 40 22 NNW
12.06.2018 16:00:00 11,7 -1,1 25 13 37 20 NW
12.06.2018 15:00:00 11,9 -0,9 23 12 37 20 NW
12.06.2018 14:00:00 10,6 -2,4 23 13 38 20 NNW
12.06.2018 13:00:00 10,5 -0,5 22 12 38 20 NW
12.06.2018 12:00:00 9,5 -1,0 21 12 42 23 N

tt = Température de l'air
td = dewpoint
ff = Vitesse du vent
fx = gusts
dd = Direction du vent

stations d'obs. à proximité